Time;durP1;ratioP1;P1;durP2;ratioP2;P2;SDS_P1;SDS_P2;PMS_P1;PMS_P2;Temp;Humidity;BMP_temperature;BMP_pressure;BME280_temperature;BME280_humidity;BME280_pressure;Samples;Min_cycle;Max_cycle;Signal;HPM_P1;HPM_P2
2023/09/08 00:01:48;;;;;;;14.25;12.52;;;;;;;15.96;100.00;101696.72;6185577;23;20024;-80
2023/09/08 00:04:14;;;;;;;14.25;12.52;;;;;;;15.94;100.00;101684.75;6185606;23;20001;-79
2023/09/08 00:06:40;;;;;;;13.93;12.30;;;;;;;15.91;100.00;101677.97;6185741;23;20084;-80
2023/09/08 00:09:06;;;;;;;14.63;12.75;;;;;;;15.82;100.00;101672.59;6185621;23;20011;-78
2023/09/08 00:11:32;;;;;;;14.98;12.68;;;;;;;15.92;100.00;101689.22;6185689;23;20028;-80
2023/09/08 00:13:57;;;;;;;14.07;12.05;;;;;;;15.85;100.00;101677.59;6185701;23;20137;-80
2023/09/08 00:16:22;;;;;;;14.15;12.52;;;;;;;15.86;100.00;101687.09;6158263;23;20036;-80
2023/09/08 00:18:48;;;;;;;14.10;12.48;;;;;;;15.82;100.00;101685.63;6185608;23;20009;-80
2023/09/08 00:21:13;;;;;;;15.07;13.05;;;;;;;15.79;100.00;101689.28;6158825;23;20004;-80
2023/09/08 00:23:38;;;;;;;14.23;12.60;;;;;;;15.74;100.00;101688.78;6185516;23;20009;-78
2023/09/08 00:26:04;;;;;;;14.40;12.63;;;;;;;15.75;100.00;101696.50;6185696;23;20001;-79
2023/09/08 00:28:29;;;;;;;14.55;12.52;;;;;;;15.72;100.00;101691.47;6185151;23;20005;-79
2023/09/08 00:30:54;;;;;;;13.90;12.32;;;;;;;15.69;100.00;101704.72;6185651;23;20007;-80
2023/09/08 00:33:22;;;;;;;14.10;12.60;;;;;;;15.71;100.00;101699.41;6185617;23;20084;-81
2023/09/08 00:35:51;;;;;;;13.25;11.77;;;;;;;15.54;100.00;101671.94;6185336;23;20427;-80
2023/09/08 00:38:17;;;;;;;14.95;12.18;;;;;;;15.64;100.00;101699.03;6185512;23;20063;-79
2023/09/08 00:40:42;;;;;;;13.05;11.68;;;;;;;15.64;100.00;101699.03;6185347;23;20075;-80
2023/09/08 00:43:07;;;;;;;14.13;11.88;;;;;;;15.62;100.00;101698.28;6185105;23;20016;-80
2023/09/08 00:45:38;;;;;;;14.68;11.48;;;;;;;15.63;100.00;101699.97;6185453;23;20081;-79
2023/09/08 00:48:04;;;;;;;14.52;12.18;;;;;;;15.48;100.00;101680.16;6185315;23;20036;-80
2023/09/08 00:50:29;;;;;;;13.10;11.65;;;;;;;15.57;100.00;101696.91;6185616;23;20001;-81
2023/09/08 00:52:54;;;;;;;17.77;13.05;;;;;;;15.54;100.00;101697.16;6185459;23;20442;-80
2023/09/08 00:55:20;;;;;;;14.02;12.63;;;;;;;15.52;100.00;101683.38;6185293;23;20036;-81
2023/09/08 00:57:45;;;;;;;13.98;12.48;;;;;;;15.48;100.00;101687.97;6185275;23;20009;-80
2023/09/08 01:00:11;;;;;;;13.77;12.32;;;;;;;15.40;100.00;101679.88;6185291;23;20001;-81
2023/09/08 01:02:37;;;;;;;15.30;12.52;;;;;;;15.33;100.00;101673.41;6185313;23;20005;-80
2023/09/08 01:05:02;;;;;;;15.18;12.63;;;;;;;15.37;100.00;101680.91;6159030;23;20084;-81
2023/09/08 01:07:30;;;;;;;14.80;12.48;;;;;;;15.41;100.00;101684.13;6185559;23;20368;-79
2023/09/08 01:09:56;;;;;;;15.30;13.65;;;;;;;15.35;100.00;101687.19;6185293;23;20032;-80
2023/09/08 01:12:21;;;;;;;15.02;13.43;;;;;;;15.37;100.00;101683.53;6185166;23;20049;-81
2023/09/08 01:14:47;;;;;;;15.23;13.63;;;;;;;15.36;100.00;101687.06;6185192;23;20005;-81
2023/09/08 01:17:12;;;;;;;15.25;13.02;;;;;;;15.32;100.00;101683.00;6158337;23;20049;-80
2023/09/08 01:19:38;;;;;;;15.70;12.88;;;;;;;15.28;100.00;101681.56;6185171;23;20005;-80
2023/09/08 01:22:34;;;;;;;15.32;13.65;;;;;;;15.29;100.00;101688.41;6185245;23;20308;-80
2023/09/08 01:25:08;;;;;;;14.88;13.05;;;;;;;15.28;100.00;101691.13;6185004;23;20383;-79
2023/09/08 01:27:35;;;;;;;16.20;13.93;;;;;;;15.27;100.00;101692.91;6184879;23;20032;-81
2023/09/08 01:30:02;;;;;;;15.15;13.45;;;;;;;15.24;100.00;101690.53;6184895;23;20008;-79
2023/09/08 01:32:29;;;;;;;15.32;13.73;;;;;;;15.08;100.00;101666.47;6184951;23;20490;-79
2023/09/08 01:34:56;;;;;;;15.52;13.77;;;;;;;15.04;100.00;101670.22;6185123;23;20470;-79
2023/09/08 01:37:25;;;;;;;15.02;13.52;;;;;;;15.14;100.00;101685.13;6184756;23;20009;-79
2023/09/08 01:39:51;;;;;;;15.55;13.95;;;;;;;15.15;100.00;101688.56;6184837;23;20008;-79
2023/09/08 01:42:16;;;;;;;15.15;13.55;;;;;;;15.12;100.00;101688.75;6184501;23;20005;-79
2023/09/08 01:44:41;;;;;;;15.95;14.25;;;;;;;15.05;100.00;101683.13;6184933;23;20079;-80
2023/09/08 01:47:07;;;;;;;15.35;13.75;;;;;;;15.02;100.00;101683.34;6184877;23;20084;-79
2023/09/08 01:49:32;;;;;;;15.75;14.15;;;;;;;15.08;100.00;101693.31;6184961;23;20032;-78
2023/09/08 01:51:57;;;;;;;16.08;13.43;;;;;;;15.05;100.00;101696.16;6185025;23;20071;-79
2023/09/08 01:54:23;;;;;;;15.70;13.55;;;;;;;15.07;100.00;101696.03;6184790;23;20001;-78
2023/09/08 01:56:48;;;;;;;16.88;14.98;;;;;;;15.08;100.00;101689.91;6185014;23;20088;-79
2023/09/08 01:59:14;;;;;;;15.65;13.73;;;;;;;14.84;100.00;101655.97;6184623;23;20076;-78
2023/09/08 02:01:40;;;;;;;15.05;13.55;;;;;;;15.06;100.00;101681.38;6184709;23;20001;-77
2023/09/08 02:04:05;;;;;;;17.67;14.77;;;;;;;14.92;100.00;101661.47;6184881;23;20005;-77
2023/09/08 02:06:31;;;;;;;17.08;15.27;;;;;;;15.00;100.00;101684.38;6184787;23;20419;-76
2023/09/08 02:08:56;;;;;;;16.75;14.88;;;;;;;14.92;100.00;101674.47;6185073;23;20036;-77
2023/09/08 02:11:21;;;;;;;16.88;15.07;;;;;;;14.90;100.00;101681.56;6185075;23;20001;-77
2023/09/08 02:13:47;;;;;;;17.08;15.02;;;;;;;14.86;100.00;101669.72;6184606;23;20055;-76
2023/09/08 02:16:16;;;;;;;17.15;14.40;;;;;;;14.84;100.00;101674.16;6185043;23;20009;-76
2023/09/08 02:18:42;;;;;;;17.35;14.65;;;;;;;14.81;100.00;101672.63;6184766;23;20514;-76
2023/09/08 02:21:07;;;;;;;18.10;15.80;;;;;;;14.89;100.00;101685.09;6185164;23;20005;-76
2023/09/08 02:23:32;;;;;;;16.55;14.85;;;;;;;14.86;100.00;101682.72;6184398;23;20424;-76
2023/09/08 02:25:58;;;;;;;16.27;14.65;;;;;;;14.84;100.00;101680.19;6184943;23;20031;-76
2023/09/08 02:28:23;;;;;;;17.35;15.60;;;;;;;14.67;100.00;101646.72;6184617;23;20409;-76
2023/09/08 02:30:48;;;;;;;15.77;14.18;;;;;;;14.84;100.00;101676.78;6184781;23;20005;-76
2023/09/08 02:33:14;;;;;;;16.40;14.68;;;;;;;14.79;100.00;101664.09;6184648;23;20005;-77
2023/09/08 02:35:39;;;;;;;16.23;14.52;;;;;;;14.81;100.00;101669.19;6184496;23;20001;-76
2023/09/08 02:38:05;;;;;;;16.42;14.48;;;;;;;14.74;100.00;101652.31;6184580;23;20497;-78
2023/09/08 02:40:30;;;;;;;16.65;14.85;;;;;;;14.80;100.00;101667.53;6184564;23;20011;-77
2023/09/08 02:42:55;;;;;;;17.08;15.23;;;;;;;14.79;100.00;101663.25;6184751;23;20079;-76
2023/09/08 02:45:21;;;;;;;16.67;14.15;;;;;;;14.75;100.00;101672.19;6184496;23;20060;-77
2023/09/08 02:47:46;;;;;;;18.83;14.93;;;;;;;14.73;100.00;101671.47;6184421;23;20006;-75
2023/09/08 02:50:11;;;;;;;18.65;15.85;;;;;;;14.47;100.00;101636.81;6184619;23;20117;-75
2023/09/08 02:52:37;;;;;;;16.88;15.05;;;;;;;14.69;100.00;101678.63;6184324;23;20438;-75
2023/09/08 02:55:02;;;;;;;17.60;15.27;;;;;;;14.68;100.00;101678.75;6184534;23;20371;-81
2023/09/08 02:57:27;;;;;;;17.23;14.63;;;;;;;14.56;100.00;101655.25;6185232;23;20016;-76
2023/09/08 02:59:56;;;;;;;19.50;15.57;;;;;;;14.66;100.00;101675.44;6186036;23;20072;-76
2023/09/08 03:02:21;;;;;;;16.52;14.70;;;;;;;14.68;100.00;101684.78;6186282;23;20005;-78
2023/09/08 03:04:46;;;;;;;17.38;15.15;;;;;;;14.61;100.00;101673.13;6186147;23;20084;-75
2023/09/08 03:07:12;;;;;;;16.20;14.40;;;;;;;14.54;100.00;101662.28;6186195;23;20323;-76
2023/09/08 03:09:37;;;;;;;17.30;15.50;;;;;;;14.58;100.00;101679.34;6186245;23;20009;-78
2023/09/08 03:12:03;;;;;;;18.27;15.52;;;;;;;14.55;100.00;101669.16;6186245;23;20005;-76
2023/09/08 03:14:28;;;;;;;19.20;15.85;;;;;;;14.50;100.00;101666.03;6186561;23;20056;-78
2023/09/08 03:16:54;;;;;;;16.85;15.05;;;;;;;14.35;100.00;101641.00;6185927;23;20001;-78
2023/09/08 03:19:19;;;;;;;19.20;15.80;;;;;;;14.45;100.00;101660.28;6186031;23;20005;-76
2023/09/08 03:21:44;;;;;;;18.60;16.15;;;;;;;14.49;100.00;101672.16;6186143;23;20005;-78
2023/09/08 03:24:10;;;;;;;18.88;15.48;;;;;;;14.47;100.00;101668.84;6185980;23;20056;-78
2023/09/08 03:26:35;;;;;;;16.80;14.95;;;;;;;14.44;100.00;101671.59;6186355;23;20052;-76
2023/09/08 03:29:00;;;;;;;18.38;16.38;;;;;;;14.47;100.00;101668.84;6186310;23;20001;-75
2023/09/08 03:31:26;;;;;;;16.90;15.13;;;;;;;14.43;100.00;101666.50;6185935;23;20323;-77
2023/09/08 03:33:51;;;;;;;19.58;16.15;;;;;;;14.40;100.00;101662.34;6185704;23;20040;-76
2023/09/08 03:36:16;;;;;;;17.20;15.25;;;;;;;14.37;100.00;101664.31;6186071;23;20001;-77
2023/09/08 03:38:42;;;;;;;18.48;16.13;;;;;;;14.36;100.00;101660.88;6185835;23;20438;-80
2023/09/08 03:41:07;;;;;;;17.95;16.05;;;;;;;14.22;100.00;101648.78;6186013;23;20020;-77
2023/09/08 03:43:32;;;;;;;20.88;15.90;;;;;;;14.30;100.00;101664.72;6186009;23;20077;-78
2023/09/08 03:45:58;;;;;;;18.73;16.80;;;;;;;14.28;100.00;101652.75;6186002;23;20025;-77
2023/09/08 03:48:23;;;;;;;17.88;15.98;;;;;;;14.24;100.00;101662.50;6185781;23;20031;-77
2023/09/08 03:50:48;;;;;;;19.35;15.77;;;;;;;14.12;100.00;101639.91;6186031;23;20001;-76
2023/09/08 03:53:14;;;;;;;18.40;16.50;;;;;;;14.07;100.00;101634.22;6185796;23;20328;-80
2023/09/08 03:55:39;;;;;;;19.08;17.08;;;;;;;14.20;100.00;101650.66;6186203;23;20028;-77
2023/09/08 03:58:05;;;;;;;19.40;17.40;;;;;;;14.19;100.00;101650.75;6185814;23;20005;-76
2023/09/08 04:00:30;;;;;;;20.10;17.73;;;;;;;14.10;100.00;101641.78;6185801;23;20025;-78
2023/09/08 04:02:56;;;;;;;20.73;18.55;;;;;;;14.15;100.00;101650.09;6185786;23;20404;-80
2023/09/08 04:05:22;;;;;;;20.73;18.52;;;;;;;14.14;100.00;101651.03;6185802;23;20075;-80
2023/09/08 04:07:47;;;;;;;20.13;17.65;;;;;;;14.13;100.00;101654.56;6185664;23;20029;-79
2023/09/08 04:10:13;;;;;;;20.10;18.00;;;;;;;14.14;100.00;101651.03;6185430;23;20005;-80
2023/09/08 04:12:41;;;;;;;21.08;18.73;;;;;;;14.14;100.00;101648.44;6185982;23;20415;-80
2023/09/08 04:15:07;;;;;;;20.92;17.65;;;;;;;14.07;100.00;101645.44;6185798;23;20019;-80
2023/09/08 04:17:33;;;;;;;20.02;17.95;;;;;;;14.14;100.00;101648.44;6158137;23;20375;-80
2023/09/08 04:19:59;;;;;;;20.88;17.92;;;;;;;14.11;100.00;101643.47;6185741;23;20036;-81
2023/09/08 04:22:24;;;;;;;21.65;17.77;;;;;;;14.10;100.00;101649.59;6185778;23;20009;-81
2023/09/08 04:24:49;;;;;;;20.73;17.50;;;;;;;14.11;100.00;101640.84;6182380;23;20483;-79
2023/09/08 04:27:15;;;;;;;19.65;17.55;;;;;;;14.10;100.00;101646.16;6185636;23;20446;-80
2023/09/08 04:29:40;;;;;;;20.58;18.38;;;;;;;14.06;100.00;101643.75;6159032;23;20012;-80
2023/09/08 04:32:08;;;;;;;19.65;17.38;;;;;;;14.04;100.00;101645.59;6185817;23;20001;-80
2023/09/08 04:34:38;;;;;;;21.05;18.80;;;;;;;13.94;100.00;101626.34;6185521;23;20070;-80
2023/09/08 04:37:04;;;;;;;21.02;18.70;;;;;;;14.01;100.00;101640.63;6185493;23;20081;-80
2023/09/08 04:39:29;;;;;;;20.95;17.63;;;;;;;14.00;100.00;101638.13;6185786;23;20005;-80
2023/09/08 04:41:54;;;;;;;20.58;18.17;;;;;;;14.02;100.00;101642.28;6185544;23;20072;-80
2023/09/08 04:44:20;;;;;;;21.15;18.33;;;;;;;13.98;100.00;101640.81;6185657;23;20001;-80
2023/09/08 04:46:45;;;;;;;19.38;17.38;;;;;;;13.98;100.00;101642.59;6185653;23;20326;-79
2023/09/08 04:49:11;;;;;;;21.75;19.23;;;;;;;13.98;100.00;101646.03;6185373;23;20088;-78
2023/09/08 04:51:36;;;;;;;22.50;18.42;;;;;;;13.98;100.00;101646.03;6185431;23;20077;-80
2023/09/08 04:54:02;;;;;;;21.80;18.65;;;;;;;13.99;100.00;101642.50;6185352;23;20005;-76
2023/09/08 04:56:27;;;;;;;21.75;18.55;;;;;;;13.91;100.00;101631.75;6158453;23;20005;-79
2023/09/08 04:58:54;;;;;;;20.17;18.08;;;;;;;13.88;100.00;101634.56;6185403;23;20001;-79
2023/09/08 05:01:20;;;;;;;20.67;18.48;;;;;;;13.97;100.00;101644.34;6185183;23;20047;-79
2023/09/08 05:03:45;;;;;;;21.33;18.80;;;;;;;13.98;100.00;101650.38;6185382;23;20466;-79
2023/09/08 05:06:11;;;;;;;22.33;18.98;;;;;;;13.94;100.00;101634.16;6185037;23;20005;-79
2023/09/08 05:08:36;;;;;;;21.73;19.30;;;;;;;13.98;100.00;101643.41;6185143;23;20092;-79
2023/09/08 05:11:01;;;;;;;22.33;19.65;;;;;;;14.01;100.00;101650.19;6185130;23;20001;-80
2023/09/08 05:13:27;;;;;;;20.75;18.42;;;;;;;14.15;100.00;101649.28;6184891;23;20016;-78
2023/09/08 05:15:59;;;;;;;20.70;18.63;;;;;;;14.42;100.00;101654.44;6185070;23;20079;-77
2023/09/08 05:18:25;;;;;;;20.73;17.75;;;;;;;14.52;100.00;101622.56;6184760;23;20004;-77
2023/09/08 05:20:50;;;;;;;20.63;18.40;;;;;;;14.90;100.00;101658.16;6184381;23;20127;-77
2023/09/08 05:23:16;;;;;;;20.50;17.92;;;;;;;14.96;100.00;101652.56;6158642;23;20000;-77
2023/09/08 05:25:42;;;;;;;19.77;17.65;;;;;;;15.04;100.00;101663.25;6181028;23;20012;-78
2023/09/08 05:28:07;;;;;;;19.55;17.52;;;;;;;15.07;100.00;101657.03;6184945;23;20009;-77
2023/09/08 05:30:33;;;;;;;18.10;16.20;;;;;;;15.21;100.00;101660.31;6184941;23;20431;-77
2023/09/08 05:32:59;;;;;;;18.88;16.88;;;;;;;15.31;100.00;101641.47;6184774;23;20445;-77
2023/09/08 05:35:24;;;;;;;20.40;17.40;;;;;;;15.48;100.00;101652.38;6158500;23;20005;-80
2023/09/08 05:37:49;;;;;;;19.17;15.73;;;;;;;15.62;100.00;101656.63;6184608;23;20092;-80
2023/09/08 05:40:15;;;;;;;20.42;18.23;;;;;;;15.68;100.00;101666.59;6184654;23;20026;-80
2023/09/08 05:42:40;;;;;;;18.88;16.90;;;;;;;15.78;100.00;101667.63;6185012;23;20008;-76
2023/09/08 05:45:06;;;;;;;18.80;16.90;;;;;;;15.73;100.00;101635.00;6185161;23;20055;-78
2023/09/08 05:47:31;;;;;;;21.38;18.88;;;;;;;15.91;100.00;101666.72;6184929;23;20001;-79
2023/09/08 05:49:56;;;;;;;18.58;15.80;;;;;;;16.06;100.00;101663.03;6185003;23;20375;-78
2023/09/08 05:52:22;;;;;;;19.35;16.85;;;;;;;16.26;100.00;101669.38;6185042;23;20012;-79
2023/09/08 05:54:47;;;;;;;20.85;16.75;;;;;;;16.25;100.00;101660.75;6184311;23;20013;-76
2023/09/08 05:57:13;;;;;;;18.10;16.05;;;;;;;16.37;100.00;101672.03;6184646;23;20012;-80
2023/09/08 05:59:38;;;;;;;19.85;17.63;;;;;;;16.33;100.00;101676.66;6184684;23;20055;-81
2023/09/08 06:02:03;;;;;;;21.05;17.85;;;;;;;16.42;100.00;101666.47;6183007;23;20023;-73
2023/09/08 06:04:31;;;;;;;22.35;18.27;;;;;;;16.43;100.00;101666.38;6185309;23;20005;-78
2023/09/08 06:06:57;;;;;;;20.08;17.75;;;;;;;16.52;100.00;101670.91;6185275;23;20055;-77
2023/09/08 06:09:22;;;;;;;24.27;20.50;;;;;;;16.49;100.00;101670.28;6184745;23;20009;-81
2023/09/08 06:11:48;;;;;;;20.33;17.70;;;;;;;17.01;100.00;101680.28;6184707;23;20012;-79
2023/09/08 06:14:13;;;;;;;20.33;16.77;;;;;;;17.48;100.00;101683.56;6184860;23;20005;-80
2023/09/08 06:16:39;;;;;;;21.48;19.27;;;;;;;17.12;100.00;101590.72;6184640;23;20009;-80
2023/09/08 06:19:05;;;;;;;18.42;16.52;;;;;;;17.68;100.00;101661.94;6184855;23;20001;-80
2023/09/08 06:21:30;;;;;;;28.70;20.50;;;;;;;17.52;100.00;101671.94;6184628;23;20109;-80
2023/09/08 06:23:55;;;;;;;22.98;20.42;;;;;;;17.89;100.00;101684.72;6184486;23;20370;-78
2023/09/08 06:26:21;;;;;;;22.70;19.50;;;;;;;19.08;100.00;101673.06;6184594;23;20016;-80
2023/09/08 06:28:46;;;;;;;20.13;18.02;;;;;;;20.75;94.31;101690.56;6184769;23;20005;-78
2023/09/08 06:31:11;;;;;;;22.13;18.42;;;;;;;21.99;86.93;101684.84;6184663;23;20012;-79
2023/09/08 06:33:37;;;;;;;18.88;16.70;;;;;;;23.15;78.95;101696.09;6186636;23;20084;-79
2023/09/08 06:36:05;;;;;;;18.92;16.50;;;;;;;24.03;73.11;101684.19;6186632;23;20419;-78
2023/09/08 06:38:31;;;;;;;17.45;15.55;;;;;;;24.89;69.61;101694.19;6186651;23;20008;-79
2023/09/08 06:40:57;;;;;;;16.95;14.40;;;;;;;25.24;64.96;101689.47;6186673;23;20005;-80
2023/09/08 06:43:22;;;;;;;18.35;15.40;;;;;;;25.74;64.08;101682.97;6186675;23;20005;-79
2023/09/08 06:45:50;;;;;;;16.48;14.40;;;;;;;26.46;62.91;101683.44;6186817;23;20004;-80
2023/09/08 06:48:16;;;;;;;20.17;13.98;;;;;;;27.01;58.51;101684.81;6186262;23;20125;-79
2023/09/08 06:50:41;;;;;;;16.30;14.05;;;;;;;27.15;57.29;101683.22;6186536;23;20022;-80
2023/09/08 06:53:07;;;;;;;17.27;13.90;;;;;;;27.45;56.01;101691.94;6186689;23;20001;-79
2023/09/08 06:55:32;;;;;;;15.90;14.20;;;;;;;27.84;54.77;101696.06;6186606;23;20011;-79
2023/09/08 06:57:58;;;;;;;16.27;13.95;;;;;;;28.04;54.06;101698.91;6186253;23;20016;-79
2023/09/08 07:00:23;;;;;;;17.30;13.77;;;;;;;28.38;52.25;101696.34;6186353;23;20012;-79
2023/09/08 07:02:49;;;;;;;18.83;13.65;;;;;;;28.66;51.07;101692.88;6186649;23;20012;-79
2023/09/08 07:05:18;;;;;;;16.52;13.93;;;;;;;28.31;51.79;101695.47;6186018;23;20331;-80
2023/09/08 07:07:43;;;;;;;17.92;14.63;;;;;;;26.87;54.80;101693.59;6186477;23;20423;-80
2023/09/08 07:10:09;;;;;;;16.27;14.48;;;;;;;25.44;60.35;101701.28;6186354;23;20052;-80
2023/09/08 07:12:35;;;;;;;18.83;14.90;;;;;;;24.21;65.95;101691.94;6186420;23;20052;-79
2023/09/08 07:15:00;;;;;;;18.42;15.20;;;;;;;23.38;69.99;101698.97;6186139;23;20115;-80
2023/09/08 07:17:26;;;;;;;18.35;15.65;;;;;;;22.66;73.87;101690.50;6158994;23;20005;-79
2023/09/08 07:19:51;;;;;;;18.80;16.35;;;;;;;22.11;76.76;101682.00;6186060;23;20008;-80
2023/09/08 07:22:17;;;;;;;18.75;16.80;;;;;;;21.83;79.23;101692.59;6186177;23;20012;-79
2023/09/08 07:24:42;;;;;;;18.58;15.73;;;;;;;21.52;81.92;101696.50;6185644;23;20021;-79
2023/09/08 07:27:08;;;;;;;17.65;15.68;;;;;;;21.19;83.85;101681.13;6184315;23;20024;-80
2023/09/08 07:29:33;;;;;;;18.90;16.90;;;;;;;20.97;86.52;101688.56;6184365;23;20001;-80
2023/09/08 07:31:58;;;;;;;18.38;16.48;;;;;;;20.91;88.09;101696.03;6184129;23;20323;-80
2023/09/08 07:34:24;;;;;;;18.23;16.33;;;;;;;20.68;89.44;101678.97;6184594;23;20017;-79
2023/09/08 07:36:49;;;;;;;17.38;15.55;;;;;;;20.81;89.19;101699.66;6184134;23;20013;-79
2023/09/08 07:39:15;;;;;;;16.52;14.88;;;;;;;20.53;92.86;101657.56;6184389;23;20051;-79
2023/09/08 07:41:40;;;;;;;18.00;15.85;;;;;;;20.56;92.13;101673.06;6184398;23;20068;-78
2023/09/08 07:44:06;;;;;;;18.80;15.98;;;;;;;20.75;91.30;101697.63;6184141;23;20083;-79
2023/09/08 07:46:32;;;;;;;18.25;16.35;;;;;;;20.77;91.63;101698.28;6184417;23;20076;-79
2023/09/08 07:48:58;;;;;;;19.17;17.17;;;;;;;20.80;92.45;101696.19;6184129;23;20208;-78
2023/09/08 07:51:24;;;;;;;17.77;15.80;;;;;;;20.82;91.96;101691.63;6157698;23;20382;-79
2023/09/08 07:53:50;;;;;;;18.77;16.80;;;;;;;20.88;92.01;101685.00;6182772;23;20005;-79
2023/09/08 07:56:15;;;;;;;18.35;16.40;;;;;;;20.94;92.15;101688.81;6184196;23;20005;-78
2023/09/08 07:58:41;;;;;;;18.15;16.23;;;;;;;21.00;93.22;101690.91;6184169;23;20009;-79
2023/09/08 08:01:06;;;;;;;18.10;16.25;;;;;;;21.05;92.22;101686.06;6184379;23;20011;-79
2023/09/08 08:03:32;;;;;;;18.98;15.77;;;;;;;21.15;92.47;101697.34;6184654;23;20005;-77
2023/09/08 08:05:58;;;;;;;16.80;15.07;;;;;;;21.22;92.48;101692.31;6184346;23;20016;-77
2023/09/08 08:08:23;;;;;;;17.10;15.35;;;;;;;21.07;93.87;101656.03;6184600;23;20084;-80
2023/09/08 08:10:49;;;;;;;19.67;16.45;;;;;;;21.29;93.20;101678.50;6184496;23;20024;-81
2023/09/08 08:13:14;;;;;;;16.90;15.20;;;;;;;21.37;92.25;101683.03;6184226;23;20343;-80
2023/09/08 08:15:42;;;;;;;19.17;13.93;;;;;;;21.41;91.73;101663.38;6184118;23;20011;-80
2023/09/08 08:18:09;;;;;;;16.45;14.45;;;;;;;21.55;91.30;101681.28;6184063;23;20005;-80
2023/09/08 08:20:35;;;;;;;15.20;13.48;;;;;;;21.69;92.14;101685.19;6184393;23;20001;-77
2023/09/08 08:23:02;;;;;;;15.52;13.93;;;;;;;21.71;92.51;101684.06;6184366;23;20001;-80
2023/09/08 08:25:28;;;;;;;18.38;13.63;;;;;;;21.78;93.73;101671.16;6138470;23;1083814;-81
2023/09/08 08:27:53;;;;;;;16.13;14.32;;;;;;;21.91;92.50;101676.03;6185533;23;20076;-80
2023/09/08 08:30:19;;;;;;;16.23;13.73;;;;;;;22.01;92.19;101685.50;6185697;23;20419;-79
2023/09/08 08:32:45;;;;;;;15.25;13.30;;;;;;;22.13;92.27;101688.81;6185844;23;20052;-81
2023/09/08 08:35:11;;;;;;;15.43;13.38;;;;;;;22.19;89.07;101695.25;6185732;23;20001;-77
2023/09/08 08:37:36;;;;;;;15.98;12.80;;;;;;;22.21;87.84;101696.75;6185588;23;19997;-78
2023/09/08 08:40:03;;;;;;;15.30;12.05;;;;;;;22.24;89.09;101687.75;6186006;23;20012;-79
2023/09/08 08:42:33;;;;;;;13.48;12.07;;;;;;;22.33;89.32;101698.19;6185124;23;20005;-80
2023/09/08 08:44:59;;;;;;;14.38;12.35;;;;;;;22.46;88.66;101704.84;6185637;23;20076;-77
2023/09/08 08:47:27;;;;;;;13.52;12.13;;;;;;;22.45;86.78;101685.59;6185950;23;20004;-79
2023/09/08 08:49:55;;;;;;;14.60;11.35;;;;;;;22.62;87.08;101704.97;6185467;23;20005;-78
2023/09/08 08:52:20;;;;;;;12.55;11.25;;;;;;;22.60;86.15;101678.78;6185552;23;20001;-79
2023/09/08 08:54:46;;;;;;;12.98;11.55;;;;;;;22.76;86.12;101699.13;6185594;23;20060;-78
2023/09/08 08:57:11;;;;;;;12.55;11.30;;;;;;;22.84;87.13;101695.78;6185341;23;20058;-78
2023/09/08 08:59:37;;;;;;;13.00;11.32;;;;;;;22.94;88.27;101696.47;6185244;23;20001;-77
2023/09/08 09:02:05;;;;;;;12.38;11.07;;;;;;;22.94;86.97;101691.22;6185380;23;20001;-76
2023/09/08 09:04:31;;;;;;;13.13;10.90;;;;;;;22.97;86.45;101674.25;6185407;23;20007;-76
2023/09/08 09:06:57;;;;;;;13.02;11.18;;;;;;;23.19;88.33;101694.78;6185216;23;20079;-79
2023/09/08 09:09:24;;;;;;;12.23;10.88;;;;;;;23.19;86.90;101686.88;6185518;23;20001;-77
2023/09/08 09:11:50;;;;;;;14.05;11.43;;;;;;;23.31;85.51;101692.72;6185385;23;20331;-77
2023/09/08 09:14:17;;;;;;;12.18;10.45;;;;;;;23.41;84.98;101699.50;6185354;23;20039;-80
2023/09/08 09:16:43;;;;;;;13.52;10.55;;;;;;;23.43;86.51;101692.25;6185498;23;20027;-75
2023/09/08 09:19:09;;;;;;;11.32;9.85;;;;;;;23.52;84.55;101687.03;6185647;23;20080;-78
2023/09/08 09:21:48;;;;;;;11.60;10.18;;;;;;;23.55;83.92;101684.06;6185418;23;20401;-78
2023/09/08 09:24:17;;;;;;;13.93;10.68;;;;;;;23.73;86.69;101697.97;6185399;23;20431;-80
2023/09/08 09:26:43;;;;;;;11.90;10.60;;;;;;;23.75;82.64;101690.72;6184822;23;20028;-77
2023/09/08 09:29:14;;;;;;;16.17;11.82;;;;;;;23.81;82.20;101691.91;6185002;23;20017;-80
2023/09/08 09:31:55;;;;;;;14.82;10.75;;;;;;;23.87;83.02;101693.88;6184946;23;20309;-79
2023/09/08 09:34:21;;;;;;;14.65;10.65;;;;;;;23.76;82.01;101673.91;6185079;23;20024;-78
2023/09/08 09:36:50;;;;;;;13.48;10.88;;;;;;;23.80;83.71;101669.97;6184640;23;20005;-80
2023/09/08 09:39:18;;;;;;;15.63;12.15;;;;;;;23.92;82.40;101666.03;6185076;23;20005;-79
2023/09/08 09:41:44;;;;;;;13.93;12.15;;;;;;;24.00;81.94;101673.97;6185174;23;20056;-80
2023/09/08 09:44:10;;;;;;;13.65;12.25;;;;;;;24.11;83.35;101688.63;6184541;23;20005;-80
2023/09/08 09:46:36;;;;;;;14.93;12.30;;;;;;;24.25;84.15;101685.34;6184970;23;20492;-79
2023/09/08 09:49:02;;;;;;;15.10;11.75;;;;;;;24.35;81.65;101689.66;6185196;23;20037;-80
2023/09/08 09:51:28;;;;;;;13.05;11.20;;;;;;;24.39;82.18;101688.34;6184351;23;20466;-78
2023/09/08 09:53:54;;;;;;;13.30;10.60;;;;;;;24.41;81.88;101691.63;6184704;23;20376;-78
2023/09/08 09:56:22;;;;;;;14.00;10.07;;;;;;;24.49;78.75;101687.19;6184849;23;20124;-78
2023/09/08 09:58:48;;;;;;;12.93;9.52;;;;;;;24.50;79.85;101688.81;6184721;23;20020;-81
2023/09/08 10:01:14;;;;;;;10.88;8.80;;;;;;;24.66;80.37;101692.41;6184864;23;20001;-78
2023/09/08 10:03:39;;;;;;;11.40;9.38;;;;;;;24.66;77.05;101687.97;6185161;23;20063;-79
2023/09/08 10:06:05;;;;;;;11.20;8.98;;;;;;;24.75;77.66;101684.31;6184604;23;20005;-78
2023/09/08 10:08:36;;;;;;;9.70;7.35;;;;;;;24.76;75.10;101679.84;6184457;23;20435;-79
2023/09/08 10:11:06;;;;;;;8.82;7.75;;;;;;;24.80;76.72;101676.72;6184910;23;20093;-80
2023/09/08 10:13:38;;;;;;;10.75;8.38;;;;;;;24.98;79.52;101676.50;6185191;23;20001;-78
2023/09/08 10:16:07;;;;;;;12.55;7.85;;;;;;;25.00;78.31;101678.97;6185007;23;20486;-78
2023/09/08 10:18:35;;;;;;;10.60;8.50;;;;;;;25.09;76.00;101678.00;6184854;23;20068;-77
2023/09/08 10:21:04;;;;;;;10.93;8.27;;;;;;;25.06;76.84;101679.13;6184525;23;20001;-79
2023/09/08 10:23:43;;;;;;;10.18;8.60;;;;;;;25.12;76.45;101682.91;6184515;23;20005;-77
2023/09/08 10:26:11;;;;;;;10.48;8.50;;;;;;;25.08;76.98;101661.31;6184592;23;20028;-77
2023/09/08 10:28:37;;;;;;;13.80;9.02;;;;;;;25.20;76.49;101661.75;6184759;23;20064;-76
2023/09/08 10:31:04;;;;;;;13.70;9.48;;;;;;;25.32;76.72;101678.88;6184725;23;20416;-79
2023/09/08 10:33:31;;;;;;;12.38;8.27;;;;;;;25.25;76.54;101664.69;6184597;23;20001;-77
2023/09/08 10:35:57;;;;;;;11.02;8.48;;;;;;;25.44;74.86;101679.31;6158042;23;20012;-78
2023/09/08 10:38:27;;;;;;;9.70;8.27;;;;;;;25.46;76.61;101667.53;6184551;23;20005;-80
2023/09/08 10:41:13;;;;;;;10.30;9.18;;;;;;;25.58;78.25;101678.56;6184711;23;20033;-79
2023/09/08 10:43:39;;;;;;;11.35;9.38;;;;;;;25.58;77.70;101680.41;6185014;23;20009;-79
2023/09/08 10:46:20;;;;;;;13.50;9.70;;;;;;;25.57;77.88;101662.88;6184921;23;20056;-80
2023/09/08 10:48:46;;;;;;;11.80;9.68;;;;;;;25.70;78.75;101663.97;6184658;23;20075;-80
2023/09/08 10:51:15;;;;;;;11.45;9.75;;;;;;;25.80;76.60;101670.88;6184639;23;20005;-79
2023/09/08 10:53:41;;;;;;;11.57;9.32;;;;;;;25.75;75.95;101655.50;6184530;23;20001;-80
2023/09/08 10:56:06;;;;;;;10.90;9.70;;;;;;;25.77;75.59;101671.22;6184652;23;20007;-79
2023/09/08 10:58:38;;;;;;;12.40;8.35;;;;;;;25.87;77.25;101672.63;6184497;23;20084;-79
2023/09/08 11:01:04;;;;;;;9.75;8.70;;;;;;;25.82;74.84;101666.22;6184719;23;20005;-79